Time;durP1;ratioP1;P1;durP2;ratioP2;P2;SDS_P1;SDS_P2;PMS_P1;PMS_P2;Temp;Humidity;BMP_temperature;BMP_pressure;BME280_temperature;BME280_humidity;BME280_pressure;Samples;Min_cycle;Max_cycle;Signal;HPM_P1;HPM_P2
2021/08/02 00:01:18;;;;;;;15.48;11.45;;;;;;;27.66;39.96;98958.06;5070939;28;20029;-73
2021/08/02 00:03:45;;;;;;;18.35;12.70;;;;;;;27.54;40.17;98957.63;5071978;28;20020;-73
2021/08/02 00:06:27;;;;;;;19.23;12.60;;;;;;;27.67;40.11;98960.44;5072704;28;20413;-73
2021/08/02 00:09:06;;;;;;;20.65;12.85;;;;;;;27.30;41.14;98954.34;5070483;28;20644;-73
2021/08/02 00:11:38;;;;;;;22.20;12.10;;;;;;;27.37;40.95;98961.91;5072495;28;20071;-74
2021/08/02 00:14:05;;;;;;;19.40;12.98;;;;;;;27.32;41.14;98966.16;5071066;28;20029;-72
2021/08/02 00:16:32;;;;;;;22.98;12.52;;;;;;;27.41;41.05;98960.50;5071979;28;20036;-73
2021/08/02 00:18:58;;;;;;;20.17;12.98;;;;;;;27.27;41.42;98966.75;5070667;28;20455;-73
2021/08/02 00:21:23;;;;;;;20.58;12.13;;;;;;;27.32;41.20;98964.09;5072520;28;20097;-73
2021/08/02 00:23:49;;;;;;;18.27;12.20;;;;;;;27.01;42.00;98970.47;5070943;28;20035;-73
2021/08/02 00:26:14;;;;;;;18.70;12.48;;;;;;;26.86;42.42;98975.03;5069982;28;20055;-74
2021/08/02 00:28:40;;;;;;;19.58;12.98;;;;;;;27.00;41.93;98971.72;5070756;28;20055;-73
2021/08/02 00:31:06;;;;;;;19.85;11.77;;;;;;;26.86;42.21;98975.03;5072156;28;20108;-73
2021/08/02 00:33:31;;;;;;;19.55;12.43;;;;;;;27.10;41.66;98966.09;5071886;28;20025;-73
2021/08/02 00:36:07;;;;;;;15.20;12.48;;;;;;;27.27;41.29;98961.81;5071230;28;20155;-73
2021/08/02 00:38:45;;;;;;;25.05;12.52;;;;;;;27.01;41.96;98976.19;5071797;28;20113;-73
2021/08/02 00:41:49;;;;;;;22.50;12.77;;;;;;;26.96;42.06;98967.38;5072278;28;20039;-73
2021/08/02 00:44:27;;;;;;;20.83;11.38;;;;;;;26.98;42.08;98964.88;5060322;28;20032;-73
2021/08/02 00:47:03;;;;;;;22.42;13.50;;;;;;;26.72;42.79;98976.28;5067362;28;20040;-74
2021/08/02 00:49:29;;;;;;;16.90;13.32;;;;;;;26.75;42.91;98966.78;5070437;28;20024;-74
2021/08/02 00:51:57;;;;;;;21.83;13.43;;;;;;;26.56;43.42;98974.34;5071998;28;20060;-73
2021/08/02 00:54:24;;;;;;;20.00;14.10;;;;;;;26.66;43.27;98981.78;5070915;28;20524;-72
2021/08/02 00:56:54;;;;;;;15.60;11.43;;;;;;;26.73;43.23;98980.78;5071951;28;20032;-72
2021/08/02 00:59:21;;;;;;;19.40;13.50;;;;;;;26.36;43.78;98981.09;5062644;28;20489;-73
2021/08/02 01:01:48;;;;;;;15.07;11.88;;;;;;;26.30;44.07;98980.03;5071720;28;20036;-73
2021/08/02 01:04:14;;;;;;;20.52;12.75;;;;;;;26.42;43.31;98979.25;5070672;28;20131;-73
2021/08/02 01:06:40;;;;;;;16.25;13.10;;;;;;;26.40;43.28;98978.13;5071115;28;20482;-72
2021/08/02 01:09:07;;;;;;;19.50;12.73;;;;;;;26.33;43.42;98976.28;5071127;28;20095;-73
2021/08/02 01:11:33;;;;;;;15.45;11.93;;;;;;;26.31;43.19;98990.25;5070826;28;20078;-73
2021/08/02 01:14:04;;;;;;;17.23;12.05;;;;;;;26.35;43.00;98994.59;5070470;28;20025;-74
2021/08/02 01:16:34;;;;;;;24.38;13.15;;;;;;;26.29;42.92;98989.88;5071071;28;20025;-73
2021/08/02 01:19:07;;;;;;;16.85;11.88;;;;;;;26.19;42.93;98988.97;5070945;28;20051;-73
2021/08/02 01:21:37;;;;;;;18.67;13.05;;;;;;;26.20;43.11;98985.66;5069130;28;20032;-73
2021/08/02 01:24:03;;;;;;;21.10;12.20;;;;;;;26.33;42.55;98985.66;5070961;28;20028;-73
2021/08/02 01:26:44;;;;;;;23.05;12.63;;;;;;;26.28;42.79;98973.97;5071316;28;20402;-72
2021/08/02 01:29:47;;;;;;;19.75;12.57;;;;;;;26.05;43.34;98979.50;5070952;28;20048;-72
2021/08/02 01:32:18;;;;;;;21.83;12.38;;;;;;;26.18;42.85;98973.81;5065259;28;20063;-73
2021/08/02 01:34:44;;;;;;;18.08;11.73;;;;;;;26.21;43.06;98981.53;5069400;28;20029;-73
2021/08/02 01:37:11;;;;;;;17.33;12.43;;;;;;;26.27;43.03;98978.91;5059034;28;20143;-73
2021/08/02 01:39:42;;;;;;;20.15;13.60;;;;;;;26.38;43.27;98980.66;5068658;28;20020;-73
2021/08/02 01:42:07;;;;;;;22.73;12.63;;;;;;;26.45;43.36;98997.59;5069182;28;20036;-73
2021/08/02 01:44:33;;;;;;;15.98;11.13;;;;;;;26.47;43.36;98992.22;5069327;28;20035;-73
2021/08/02 01:47:13;;;;;;;19.75;11.60;;;;;;;26.56;43.07;98988.69;5070297;28;20292;-73
2021/08/02 01:49:45;;;;;;;19.75;12.30;;;;;;;26.55;42.30;98998.56;5069795;28;20033;-73
2021/08/02 01:52:20;;;;;;;22.38;12.30;;;;;;;26.58;42.29;99000.50;5070455;28;20048;-73
2021/08/02 01:55:06;;;;;;;19.52;12.20;;;;;;;26.42;42.57;98999.31;5069003;28;20449;-74
2021/08/02 01:57:54;;;;;;;34.08;12.93;;;;;;;26.34;42.62;98995.88;5069693;28;20085;-72
2021/08/02 02:00:21;;;;;;;20.23;12.35;;;;;;;26.21;42.89;98995.03;5070331;28;20459;-74
2021/08/02 02:02:58;;;;;;;28.15;12.77;;;;;;;26.18;42.84;98985.28;5070500;28;20032;-73
2021/08/02 02:05:30;;;;;;;21.08;12.80;;;;;;;26.26;42.91;98979.34;5068970;28;20094;-73
2021/08/02 02:08:21;;;;;;;18.63;12.02;;;;;;;26.20;42.76;98979.91;5069849;28;20123;-73
2021/08/02 02:10:59;;;;;;;24.25;11.82;;;;;;;26.29;42.76;98981.28;5063129;28;20051;-73
2021/08/02 02:13:33;;;;;;;29.15;12.48;;;;;;;26.36;42.92;98983.97;5070370;28;20109;-74
2021/08/02 02:16:00;;;;;;;35.38;14.55;;;;;;;26.35;42.69;98970.88;5069184;28;20040;-73
2021/08/02 02:18:28;;;;;;;29.35;13.60;;;;;;;26.14;43.71;98978.81;5070142;28;20029;-73
2021/08/02 02:20:57;;;;;;;23.85;12.25;;;;;;;26.21;43.37;98981.53;5068930;28;20060;-73
2021/08/02 02:23:23;;;;;;;19.13;12.32;;;;;;;26.30;43.07;98968.56;5070216;28;20493;-73
2021/08/02 02:25:49;;;;;;;20.45;13.20;;;;;;;26.38;42.81;98969.97;5069264;28;20501;-73
2021/08/02 02:28:15;;;;;;;23.40;12.52;;;;;;;26.61;42.22;98970.91;5068727;28;20107;-73
2021/08/02 02:30:42;;;;;;;24.77;12.48;;;;;;;26.51;42.66;98977.78;5069480;28;20028;-74
2021/08/02 02:33:12;;;;;;;23.55;12.27;;;;;;;26.58;42.31;98978.34;5068374;28;20029;-74
2021/08/02 02:35:40;;;;;;;19.42;11.70;;;;;;;26.46;42.67;98971.34;5069747;28;20409;-73
2021/08/02 02:38:11;;;;;;;23.67;12.55;;;;;;;26.52;42.30;98967.91;5069786;28;20081;-74
2021/08/02 02:40:38;;;;;;;24.00;12.65;;;;;;;26.34;43.61;98969.28;5068146;28;20032;-73
2021/08/02 02:43:05;;;;;;;27.63;13.57;;;;;;;26.18;43.93;98961.53;5069892;28;20035;-72
2021/08/02 02:45:34;;;;;;;35.70;14.02;;;;;;;26.13;44.01;98951.44;5069747;28;20025;-73
2021/08/02 02:48:00;;;;;;;22.38;12.60;;;;;;;26.17;44.07;98955.00;5069770;28;20033;-73
2021/08/02 02:50:27;;;;;;;26.25;11.75;;;;;;;26.30;43.57;98951.38;5069509;28;20028;-73
2021/08/02 02:52:53;;;;;;;25.23;13.43;;;;;;;26.16;43.43;98961.19;5069958;28;20486;-73
2021/08/02 02:55:19;;;;;;;30.75;14.05;;;;;;;26.23;43.42;98954.47;5069470;28;20742;-72
2021/08/02 02:57:45;;;;;;;32.10;13.88;;;;;;;26.15;43.54;98957.50;5069673;28;20095;-73
2021/08/02 03:00:10;;;;;;;31.85;13.57;;;;;;;26.15;44.04;98957.50;5069467;28;20032;-73
2021/08/02 03:02:37;;;;;;;29.02;14.75;;;;;;;26.11;44.50;98950.28;5069478;28;20225;-73
2021/08/02 03:05:06;;;;;;;33.53;13.52;;;;;;;26.13;44.15;98954.31;5069446;28;20032;-73
2021/08/02 03:07:32;;;;;;;24.08;12.35;;;;;;;26.17;43.73;98963.59;5069459;28;20081;-73
2021/08/02 03:09:59;;;;;;;36.42;13.85;;;;;;;26.02;44.66;98953.81;5068180;28;20211;-73
2021/08/02 03:12:25;;;;;;;21.90;13.52;;;;;;;26.03;44.36;98950.50;5069278;28;20023;-73
2021/08/02 03:14:51;;;;;;;23.95;12.63;;;;;;;26.00;44.03;98953.47;5084911;28;20121;-74
2021/08/02 03:17:16;;;;;;;36.17;14.38;;;;;;;26.14;43.59;98950.19;5069222;28;20067;-74
2021/08/02 03:19:42;;;;;;;30.30;13.93;;;;;;;26.07;43.85;98950.41;5069489;28;20016;-74
2021/08/02 03:22:34;;;;;;;46.17;15.02;;;;;;;25.96;44.43;98955.66;5084826;28;20024;-74
2021/08/02 03:25:15;;;;;;;34.60;12.90;;;;;;;25.92;44.84;98959.41;5066477;28;20123;-73
2021/08/02 03:28:06;;;;;;;42.08;14.55;;;;;;;25.97;44.75;98954.38;5061553;28;20474;-74
2021/08/02 03:30:35;;;;;;;21.30;12.27;;;;;;;25.86;44.83;98952.63;5067628;28;20537;-74
2021/08/02 03:33:02;;;;;;;42.78;14.32;;;;;;;25.81;45.16;98956.03;5068221;28;20029;-73
2021/08/02 03:35:29;;;;;;;39.58;13.32;;;;;;;25.97;44.42;98971.56;5069635;28;20111;-73
2021/08/02 03:37:55;;;;;;;16.02;12.70;;;;;;;25.59;44.80;98968.09;5058821;28;20566;-73
2021/08/02 03:40:22;;;;;;;27.83;14.10;;;;;;;25.67;44.79;98965.03;5070310;28;20116;-73
2021/08/02 03:42:48;;;;;;;31.05;13.50;;;;;;;25.80;44.94;98980.19;5071593;28;20064;-78
2021/08/02 03:45:15;;;;;;;25.90;12.93;;;;;;;25.83;44.92;98982.19;5072563;28;20033;-74
2021/08/02 03:47:42;;;;;;;21.65;12.82;;;;;;;25.86;44.63;98974.72;5069086;28;20067;-74
2021/08/02 03:50:08;;;;;;;18.80;12.20;;;;;;;25.84;44.75;98985.84;5070616;28;20033;-78
2021/08/02 03:52:34;;;;;;;22.52;14.98;;;;;;;25.57;46.11;98981.25;5068584;28;20028;-74
2021/08/02 03:55:01;;;;;;;23.85;13.23;;;;;;;25.67;45.80;98971.56;5069080;28;20063;-74
2021/08/02 03:57:29;;;;;;;20.88;12.98;;;;;;;25.69;43.93;98969.06;5069018;28;20035;-74
2021/08/02 03:59:54;;;;;;;18.48;13.52;;;;;;;25.48;45.39;98985.53;5066582;28;20048;-74
2021/08/02 04:02:20;;;;;;;21.95;14.13;;;;;;;25.43;45.99;98979.53;5070666;28;20025;-75
2021/08/02 04:04:45;;;;;;;21.60;14.50;;;;;;;25.40;46.71;98986.16;5066423;28;20040;-74
2021/08/02 04:07:11;;;;;;;34.05;14.63;;;;;;;25.24;46.89;98974.28;5064654;28;20032;-72
2021/08/02 04:09:37;;;;;;;25.90;16.33;;;;;;;25.33;47.02;98972.84;5069049;28;20032;-72
2021/08/02 04:12:02;;;;;;;33.72;16.80;;;;;;;25.40;46.69;98969.81;5072248;28;20082;-72
2021/08/02 04:14:28;;;;;;;22.10;15.73;;;;;;;25.09;47.79;98982.41;5072169;28;20043;-76
2021/08/02 04:16:53;;;;;;;35.17;15.82;;;;;;;25.14;47.88;98983.16;5070250;28;20082;-72
2021/08/02 04:19:19;;;;;;;33.17;15.55;;;;;;;24.98;48.71;98993.34;5072219;28;20601;-71
2021/08/02 04:21:44;;;;;;;22.30;14.48;;;;;;;25.13;48.39;99001.56;5072509;28;20029;-72
2021/08/02 04:24:10;;;;;;;36.10;16.42;;;;;;;25.21;48.86;99008.69;5071229;28;20056;-76
2021/08/02 04:26:35;;;;;;;28.63;15.57;;;;;;;25.04;49.50;99007.88;5079846;28;20032;-75
2021/08/02 04:29:01;;;;;;;26.73;15.60;;;;;;;24.94;50.23;98999.16;5064470;28;20087;-74
2021/08/02 04:31:31;;;;;;;25.38;14.98;;;;;;;25.11;49.99;98995.50;5065616;28;20040;-74
2021/08/02 04:33:56;;;;;;;;;;;;;;;25.14;48.12;98998.25;5068608;28;20020;-74
2021/08/02 04:36:23;;;;;;;28.33;16.70;;;;;;;25.26;48.42;99001.63;5068014;28;19920;-74
2021/08/02 04:38:49;;;;;;;31.08;17.10;;;;;;;25.46;47.73;98990.09;5068331;28;20048;-74
2021/08/02 04:41:14;;;;;;;33.85;16.30;;;;;;;25.47;47.53;98992.50;5070317;28;20063;-74
2021/08/02 04:43:40;;;;;;;28.98;16.63;;;;;;;25.61;47.19;98999.94;5064458;28;20094;-74
2021/08/02 04:46:05;;;;;;;24.65;14.68;;;;;;;25.72;46.63;99016.81;5069141;28;20382;-74
2021/08/02 04:48:31;;;;;;;24.05;15.35;;;;;;;25.81;46.80;99010.44;5071483;28;20017;-74
2021/08/02 04:50:56;;;;;;;19.48;14.35;;;;;;;25.87;47.09;99008.66;5070273;28;20028;-75
2021/08/02 04:53:22;;;;;;;26.63;14.88;;;;;;;25.84;47.34;99014.47;5069776;28;20040;-74
2021/08/02 04:55:47;;;;;;;24.92;15.95;;;;;;;25.85;47.65;99014.03;5071628;28;20032;-74
2021/08/02 04:58:12;;;;;;;20.92;15.48;;;;;;;25.77;47.62;99015.47;5067381;28;20028;-74
2021/08/02 05:00:38;;;;;;;28.02;15.55;;;;;;;25.59;48.49;99010.22;5071495;28;20045;-74
2021/08/02 05:03:04;;;;;;;26.05;15.50;;;;;;;25.54;48.25;99008.72;5069386;28;20090;-74
2021/08/02 05:05:29;;;;;;;20.77;14.77;;;;;;;25.73;48.24;99017.66;5069895;28;20024;-74
2021/08/02 05:07:55;;;;;;;26.08;16.60;;;;;;;25.75;48.26;99026.59;5071331;28;20032;-74
2021/08/02 05:10:20;;;;;;;20.83;16.30;;;;;;;25.86;48.27;99020.56;5070880;28;20036;-74
2021/08/02 05:12:46;;;;;;;25.73;17.08;;;;;;;25.83;48.51;99028.00;5063847;28;20027;-73
2021/08/02 05:15:12;;;;;;;22.42;15.77;;;;;;;25.90;48.11;99027.78;5067165;28;20113;-73
2021/08/02 05:17:39;;;;;;;27.23;15.85;;;;;;;26.04;47.80;99028.66;5064548;28;20029;-73
2021/08/02 05:20:06;;;;;;;20.45;14.77;;;;;;;26.06;47.66;99032.66;5070590;28;20043;-72
2021/08/02 05:22:31;;;;;;;26.33;16.25;;;;;;;25.99;48.19;99024.28;5070930;28;20112;-72
2021/08/02 05:24:57;;;;;;;30.98;17.98;;;;;;;26.04;48.24;99038.06;5069554;28;20115;-72
2021/08/02 05:27:22;;;;;;;26.27;15.68;;;;;;;26.11;47.87;99036.22;5069913;28;20032;-74
2021/08/02 05:29:48;;;;;;;22.77;15.98;;;;;;;26.26;47.44;99025.19;5070045;28;20024;-75
2021/08/02 05:32:13;;;;;;;27.48;16.10;;;;;;;26.35;47.27;99022.47;5064555;28;20032;-75
2021/08/02 05:34:40;;;;;;;22.10;15.45;;;;;;;26.39;47.46;99026.03;5058372;28;20572;-73
2021/08/02 05:37:09;;;;;;;23.80;15.75;;;;;;;26.49;47.37;99030.66;5068807;28;20048;-74
2021/08/02 05:39:35;;;;;;;28.92;16.50;;;;;;;26.59;47.39;99025.03;5067579;28;20024;-72
2021/08/02 05:42:00;;;;;;;30.63;16.67;;;;;;;26.62;47.69;99029.88;5068513;28;20115;-74
2021/08/02 05:44:26;;;;;;;24.77;15.63;;;;;;;26.68;47.49;99028.03;5059290;28;20145;-73
2021/08/02 05:46:52;;;;;;;21.05;15.25;;;;;;;26.80;46.50;99037.91;5066361;28;20036;-72
2021/08/02 05:49:17;;;;;;;24.02;15.05;;;;;;;26.87;46.61;99034.84;5068409;28;20029;-74
2021/08/02 05:51:43;;;;;;;23.42;15.10;;;;;;;26.93;46.53;99029.34;5069051;28;20037;-74
2021/08/02 05:54:08;;;;;;;25.02;16.52;;;;;;;26.97;46.39;99027.16;5067009;28;20129;-72
2021/08/02 05:56:34;;;;;;;20.98;14.15;;;;;;;27.04;45.03;99026.13;5066705;28;20020;-74
2021/08/02 05:58:59;;;;;;;22.92;14.88;;;;;;;27.12;45.52;99021.78;5068918;28;20024;-72
2021/08/02 06:01:25;;;;;;;31.67;15.52;;;;;;;27.22;44.82;99024.75;5068853;28;20032;-72
2021/08/02 06:03:50;;;;;;;21.30;14.85;;;;;;;27.27;45.02;99027.84;5070388;28;20028;-74
2021/08/02 06:06:16;;;;;;;21.42;15.15;;;;;;;27.38;45.32;99016.00;5068566;28;20391;-72
2021/08/02 06:08:43;;;;;;;28.80;15.70;;;;;;;27.44;44.95;99013.34;5069145;28;20074;-74
2021/08/02 06:11:09;;;;;;;33.35;16.05;;;;;;;27.58;45.69;99014.94;5057714;28;20025;-72
2021/08/02 06:13:34;;;;;;;24.25;15.68;;;;;;;27.60;45.66;99018.16;5067166;28;20070;-74
2021/08/02 06:16:00;;;;;;;22.73;15.05;;;;;;;27.60;45.08;99004.59;5068281;28;20071;-72
2021/08/02 06:18:26;;;;;;;26.98;15.20;;;;;;;27.57;44.68;99011.25;5059541;28;20035;-72
2021/08/02 06:20:51;;;;;;;21.02;14.20;;;;;;;27.69;44.93;99011.69;5068757;28;20028;-73
2021/08/02 06:23:17;;;;;;;19.27;14.32;;;;;;;27.72;44.38;99002.94;5069391;28;20029;-74
2021/08/02 06:25:42;;;;;;;25.50;15.20;;;;;;;27.77;44.89;99000.75;5068741;28;20124;-74
2021/08/02 06:28:08;;;;;;;19.95;15.18;;;;;;;27.86;45.01;98998.75;5070189;28;20032;-74
2021/08/02 06:30:33;;;;;;;19.73;13.63;;;;;;;27.93;44.28;98997.69;5062607;28;20028;-74
2021/08/02 06:32:59;;;;;;;35.90;16.15;;;;;;;28.04;44.59;99000.16;5069489;28;20406;-74
2021/08/02 06:35:26;;;;;;;27.67;15.63;;;;;;;28.10;44.75;98994.63;5068508;28;20028;-74
2021/08/02 06:37:51;;;;;;;26.88;14.57;;;;;;;28.19;45.33;98988.16;5070132;28;20067;-76
2021/08/02 06:40:17;;;;;;;26.33;14.15;;;;;;;28.32;45.33;98988.09;5070107;28;20105;-74
2021/08/02 06:42:42;;;;;;;23.88;14.07;;;;;;;28.41;44.38;98982.38;5069378;28;20089;-72
2021/08/02 06:45:09;;;;;;;30.67;15.57;;;;;;;28.42;44.50;98976.16;5069983;28;20043;-72
2021/08/02 06:47:35;;;;;;;26.48;16.20;;;;;;;28.58;44.45;98972.25;5067743;28;20028;-75
2021/08/02 06:50:01;;;;;;;16.20;14.35;;;;;;;28.64;43.52;98972.44;5069960;28;20604;-73
2021/08/02 06:52:26;;;;;;;30.40;15.55;;;;;;;28.75;43.29;98968.34;5065506;28;20025;-72
2021/08/02 06:54:51;;;;;;;24.52;15.57;;;;;;;28.83;43.49;98975.41;5057036;28;20482;-73
2021/08/02 06:57:18;;;;;;;20.73;14.68;;;;;;;29.07;44.04;98983.50;5067302;28;20020;-71
2021/08/02 06:59:44;;;;;;;38.63;16.02;;;;;;;29.09;43.50;98981.75;5069390;28;20042;-72
2021/08/02 07:02:09;;;;;;;24.58;15.38;;;;;;;29.19;43.26;98970.25;5068141;28;20490;-71
2021/08/02 07:04:35;;;;;;;30.35;14.70;;;;;;;29.33;43.75;98980.38;5069679;28;20027;-71
2021/08/02 07:07:00;;;;;;;24.42;14.68;;;;;;;29.39;43.01;98984.22;5068466;28;20045;-72
2021/08/02 07:09:25;;;;;;;21.63;13.45;;;;;;;29.50;43.43;98975.94;5063052;28;20017;-73
2021/08/02 07:11:51;;;;;;;22.02;14.48;;;;;;;29.65;43.24;98983.94;5070191;28;20539;-73
2021/08/02 07:14:16;;;;;;;34.03;14.00;;;;;;;29.75;42.87;98985.56;5071172;28;20028;-72
2021/08/02 07:16:42;;;;;;;23.45;15.93;;;;;;;29.81;42.67;98979.97;5074031;28;20028;-71
2021/08/02 07:19:07;;;;;;;21.98;13.38;;;;;;;29.87;42.53;98975.16;5071202;28;20082;-71
2021/08/02 07:21:33;;;;;;;19.63;12.85;;;;;;;29.93;42.50;98981.88;5073176;28;20390;-71
2021/08/02 07:23:58;;;;;;;27.17;14.07;;;;;;;30.00;41.79;98977.88;5073263;28;20090;-72
2021/08/02 07:26:25;;;;;;;20.48;13.20;;;;;;;30.11;41.44;98975.31;5073527;28;20051;-71
2021/08/02 07:28:50;;;;;;;20.48;13.02;;;;;;;30.18;41.25;98979.94;5071291;28;20027;-72
2021/08/02 07:31:16;;;;;;;21.27;13.65;;;;;;;30.32;41.16;98974.78;5073377;28;20104;-72
2021/08/02 07:33:42;;;;;;;19.75;13.45;;;;;;;30.32;40.94;98969.84;5072840;28;20016;-73
2021/08/02 07:36:07;;;;;;;17.80;12.73;;;;;;;30.45;41.04;98983.28;5070844;28;20495;-73
2021/08/02 07:38:34;;;;;;;25.38;14.25;;;;;;;30.48;41.32;98982.28;5071287;28;20134;-73
2021/08/02 07:41:00;;;;;;;32.90;13.60;;;;;;;30.56;41.39;98972.03;5071616;28;20029;-77
2021/08/02 07:43:26;;;;;;;22.38;15.23;;;;;;;30.60;41.15;98978.41;5072800;28;20025;-75
2021/08/02 07:45:51;;;;;;;19.58;13.35;;;;;;;30.58;41.63;98969.44;5072213;28;20043;-75
2021/08/02 07:48:17;;;;;;;26.55;16.48;;;;;;;30.64;41.83;98969.59;5072804;28;20079;-74
2021/08/02 07:50:42;;;;;;;31.50;14.85;;;;;;;30.77;41.80;98973.09;5072686;28;20055;-76
2021/08/02 07:53:08;;;;;;;27.40;16.17;;;;;;;30.87;41.73;98975.94;5072698;28;20086;-75
2021/08/02 07:55:33;;;;;;;32.25;16.08;;;;;;;31.00;42.25;98967.84;5071691;28;20041;-74
2021/08/02 07:57:58;;;;;;;21.50;14.60;;;;;;;31.24;41.83;98973.66;5071339;28;20090;-74
2021/08/02 08:00:24;;;;;;;21.52;15.10;;;;;;;31.17;41.21;98985.56;5072520;28;20039;-73
2021/08/02 08:02:49;;;;;;;32.85;16.15;;;;;;;31.17;41.61;98976.09;5072397;28;20023;-73
2021/08/02 08:05:15;;;;;;;24.63;15.55;;;;;;;31.35;40.98;98966.53;5071802;28;20036;-72
2021/08/02 08:07:42;;;;;;;28.17;15.70;;;;;;;31.29;41.32;98965.63;5072347;28;20020;-72
2021/08/02 08:10:08;;;;;;;18.95;15.07;;;;;;;31.32;40.16;98961.75;5072580;28;20029;-75
2021/08/02 08:12:34;;;;;;;36.88;15.32;;;;;;;31.41;41.50;98963.78;5070062;28;20409;-74
2021/08/02 08:14:59;;;;;;;28.73;15.45;;;;;;;31.50;41.02;98961.63;5072156;28;20032;-74
2021/08/02 08:17:24;;;;;;;33.08;16.52;;;;;;;31.64;40.85;98960.06;5072252;28;20032;-71
2021/08/02 08:19:50;;;;;;;24.67;14.57;;;;;;;31.75;40.51;98956.63;5072212;28;20016;-73
2021/08/02 08:22:15;;;;;;;27.50;15.23;;;;;;;31.88;40.52;98953.47;5070145;28;20078;-71
2021/08/02 08:24:41;;;;;;;19.95;16.00;;;;;;;32.11;39.80;98948.09;5071372;28;20082;-71
2021/08/02 08:27:06;;;;;;;30.48;15.52;;;;;;;32.19;38.71;98943.53;5072039;28;20025;-71
2021/08/02 08:29:31;;;;;;;20.35;14.43;;;;;;;32.32;38.09;98943.22;5071999;28;20074;-71
2021/08/02 08:31:57;;;;;;;29.70;15.77;;;;;;;32.49;40.02;98945.66;5070873;28;20062;-71
2021/08/02 08:34:22;;;;;;;28.08;16.17;;;;;;;32.68;39.60;98939.63;5070550;28;20017;-74
2021/08/02 08:36:48;;;;;;;21.38;14.90;;;;;;;32.72;39.24;98948.91;5071377;28;20068;-74
2021/08/02 08:39:13;;;;;;;24.40;14.38;;;;;;;32.77;38.94;98939.50;5071702;28;20497;-75
2021/08/02 08:41:41;;;;;;;34.13;15.43;;;;;;;32.80;38.32;98932.69;5069903;28;20474;-76
2021/08/02 08:44:07;;;;;;;24.33;15.05;;;;;;;32.82;37.78;98924.31;5071686;28;20085;-70
2021/08/02 08:46:33;;;;;;;27.13;15.77;;;;;;;32.81;37.45;98919.03;5072074;28;20613;-73
2021/08/02 08:48:59;;;;;;;35.00;16.55;;;;;;;32.78;37.07;98926.63;5070883;28;20039;-72
2021/08/02 08:51:27;;;;;;;100.63;21.20;;;;;;;32.74;37.36;98931.84;5071443;28;20033;-72
2021/08/02 08:53:53;;;;;;;42.75;15.82;;;;;;;32.87;37.39;98928.59;5070001;28;20417;-72
2021/08/02 08:56:18;;;;;;;33.00;15.25;;;;;;;32.80;37.64;98915.34;5071307;28;20093;-71
2021/08/02 08:58:44;;;;;;;27.73;14.68;;;;;;;32.85;37.53;98917.53;5069306;28;20024;-71
2021/08/02 09:01:10;;;;;;;40.00;17.35;;;;;;;32.98;37.80;98911.41;5070000;28;20040;-71
2021/08/02 09:03:35;;;;;;;25.45;14.93;;;;;;;33.01;37.50;98912.50;5071332;28;20028;-72
2021/08/02 09:06:07;;;;;;;23.42;15.02;;;;;;;33.09;36.97;98907.09;5071177;28;20028;-71
2021/08/02 09:08:41;;;;;;;24.55;14.75;;;;;;;33.22;37.82;98907.53;5069064;28;20020;-72
2021/08/02 09:11:07;;;;;;;41.72;15.18;;;;;;;33.13;37.65;98908.47;5071076;28;20035;-73
2021/08/02 09:13:36;;;;;;;30.38;14.23;;;;;;;33.25;36.64;98909.44;5071114;28;20024;-73
2021/08/02 09:16:12;;;;;;;25.27;14.93;;;;;;;33.34;36.69;98911.38;5069268;28;20040;-72
2021/08/02 09:18:38;;;;;;;22.95;13.75;;;;;;;33.36;37.10;98897.16;5070575;28;20104;-73
2021/08/02 09:21:08;;;;;;;21.83;13.30;;;;;;;33.51;35.27;98890.50;5071006;28;20107;-73
2021/08/02 09:23:45;;;;;;;32.53;15.88;;;;;;;33.74;34.89;98895.25;5069576;28;20028;-72
2021/08/02 09:26:10;;;;;;;24.15;14.45;;;;;;;33.79;35.04;98885.03;5069731;28;20028;-72
2021/08/02 09:28:36;;;;;;;28.48;13.93;;;;;;;33.87;35.61;98874.59;5070803;28;20032;-72
2021/08/02 09:31:04;;;;;;;19.30;13.23;;;;;;;33.95;36.52;98877.81;5071067;28;20103;-72
2021/08/02 09:33:49;;;;;;;17.45;12.48;;;;;;;33.98;34.69;98879.72;5070630;28;20040;-71
2021/08/02 09:36:16;;;;;;;21.90;13.07;;;;;;;34.13;35.31;98881.69;5068087;28;20094;-71
2021/08/02 09:38:42;;;;;;;27.40;13.75;;;;;;;34.31;34.59;98874.72;5070472;28;20474;-70
2021/08/02 09:41:08;;;;;;;29.77;14.52;;;;;;;34.38;35.07;98874.25;5069345;28;20132;-70
2021/08/02 09:43:34;;;;;;;30.27;14.40;;;;;;;34.33;34.12;98877.09;5068414;28;20099;-70
2021/08/02 09:46:02;;;;;;;32.55;14.70;;;;;;;34.24;34.38;98870.19;5066109;28;20051;-71
2021/08/02 09:48:35;;;;;;;28.77;14.90;;;;;;;34.33;35.34;98859.69;5063632;28;20073;-71
2021/08/02 09:51:20;;;;;;;26.38;13.57;;;;;;;34.46;34.46;98860.06;5067063;28;20387;-71
2021/08/02 09:53:51;;;;;;;31.77;15.13;;;;;;;34.54;34.54;98855.41;5067790;28;20506;-71
2021/08/02 09:56:22;;;;;;;28.67;14.48;;;;;;;34.49;33.38;98859.03;5068414;28;20497;-70
2021/08/02 09:58:48;;;;;;;26.55;14.43;;;;;;;34.39;33.07;98852.63;5061084;28;20024;-71
2021/08/02 10:01:17;;;;;;;28.23;14.07;;;;;;;34.55;32.86;98841.66;5064007;28;20025;-70
2021/08/02 10:03:43;;;;;;;24.80;14.77;;;;;;;34.71;33.29;98848.91;5069466;28;20512;-71
2021/08/02 10:06:10;;;;;;;21.05;14.10;;;;;;;34.75;33.90;98855.25;5070786;28;20029;-71
2021/08/02 10:08:36;;;;;;;19.20;12.85;;;;;;;34.88;33.13;98851.91;5068824;28;20032;-71
2021/08/02 10:11:03;;;;;;;30.52;14.07;;;;;;;35.09;33.16;98858.38;5070191;28;20039;-71
2021/08/02 10:13:33;;;;;;;25.80;14.60;;;;;;;35.19;32.77;98846.53;5069993;28;20086;-71
2021/08/02 10:16:01;;;;;;;26.58;13.60;;;;;;;35.37;32.16;98836.53;5068522;28;20035;-71
2021/08/02 10:18:29;;;;;;;19.55;13.52;;;;;;;35.60;31.17;98833.72;5067895;28;20060;-71
2021/08/02 10:21:10;;;;;;;23.52;13.23;;;;;;;35.49;31.75;98829.44;5068680;28;20032;-71
2021/08/02 10:23:40;;;;;;;26.65;13.27;;;;;;;35.64;30.68;98825.53;5060161;28;20055;-71
2021/08/02 10:26:28;;;;;;;19.23;13.07;;;;;;;35.58;31.09;98828.44;5070393;28;20033;-70
2021/08/02 10:29:07;;;;;;;23.38;13.50;;;;;;;35.66;31.54;98825.78;5056302;28;20035;-71
2021/08/02 10:31:47;;;;;;;22.88;12.18;;;;;;;35.69;30.66;98821.84;5057329;28;20045;-71
2021/08/02 10:34:23;;;;;;;38.15;12.80;;;;;;;35.66;30.74;98829.50;5069121;28;20466;-71
2021/08/02 10:37:03;;;;;;;31.05;12.80;;;;;;;35.86;29.98;98826.88;5069696;28;20124;-71
2021/08/02 10:39:31;;;;;;;30.90;12.50;;;;;;;36.19;29.99;98825.34;5068500;28;20491;-71
2021/08/02 10:42:23;;;;;;;21.38;11.80;;;;;;;36.23;29.77;98805.50;5068200;28;20017;-71
2021/08/02 10:44:54;;;;;;;28.00;13.07;;;;;;;36.32;28.15;98808.13;5066658;28;20032;-71
2021/08/02 10:47:19;;;;;;;24.38;11.85;;;;;;;36.27;29.65;98811.03;5069466;28;20032;-71
2021/08/02 10:49:52;;;;;;;22.08;10.98;;;;;;;36.30;28.99;98807.06;5073836;28;20035;-71
2021/08/02 10:52:28;;;;;;;28.23;12.68;;;;;;;36.47;27.75;98795.41;5071354;28;20024;-71
2021/08/02 10:54:54;;;;;;;22.67;11.80;;;;;;;36.65;26.88;98791.94;5071791;28;20048;-71
2021/08/02 10:57:19;;;;;;;25.67;11.80;;;;;;;36.63;26.88;98779.25;5073316;28;20039;-71
2021/08/02 10:59:45;;;;;;;24.90;12.35;;;;;;;36.78;26.76;98791.38;5073591;28;20052;-71
2021/08/02 11:02:12;;;;;;;23.42;12.15;;;;;;;36.87;26.04;98790.28;5072087;28;20050;-71
2021/08/02 11:04:41;;;;;;;23.52;11.50;;;;;;;36.85;24.87;98783.41;5073591;28;20024;-71
2021/08/02 11:07:07;;;;;;;;;;;;;;;36.87;25.08;98784.47;5068804;28;20098;-71
2021/08/02 11:09:36;;;;;;;28.63;11.57;;;;;;;36.98;26.19;98774.06;5072708;28;19920;-71
2021/08/02 11:12:13;;;;;;;27.98;11.40;;;;;;;36.92;25.84;98771.19;5072062;28;20123;-71
2021/08/02 11:14:44;;;;;;;31.15;11.45;;;;;;;37.00;25.19;98769.28;5065495;28;20029;-71
2021/08/02 11:17:14;;;;;;;23.15;11.07;;;;;;;36.87;25.93;98769.09;5073038;28;20066;-71
2021/08/02 11:19:40;;;;;;;48.88;12.02;;;;;;;37.17;25.73;98762.63;5073633;28;20017;-71
2021/08/02 11:22:05;;;;;;;35.70;11.95;;;;;;;37.19;24.83;98762.88;5071757;28;20035;-71